Terminal Aerodrome Forecast
Issued by NWS Portland, ME

Current Version | Previous Version | Text Only | Print | Product List | Glossary On
Versions: 1 2 3 4 5 6 7 8 9 10 11 12 13 14 15 16 17 18 19 20 21 22 23 24 25
472 FTUS41 KGYX 280847 AAB TAFCON TAF AMD KCON 280847Z 2809/2906 00000KT P6SM SCT008 BKN012 OVC021 FM281000 06009KT P6SM OVC012 FM281400 07010KT P6SM BKN025=

USA.gov is the U.S. government's official web portal to all federal, state and local government web resources and services.